sensor_id;sensor_type;location;lat;lon;timestamp;P1;durP1;ratioP1;P2;durP2;ratioP2
20828;SDS011;10575;50.124;8.582;2023-12-20T00:02:16;12.73;;;6.97;;
20828;SDS011;10575;50.124;8.582;2023-12-20T00:04:42;13.15;;;6.97;;
20828;SDS011;10575;50.124;8.582;2023-12-20T00:07:07;12.35;;;6.63;;
20828;SDS011;10575;50.124;8.582;2023-12-20T00:09:33;12.02;;;6.60;;
20828;SDS011;10575;50.124;8.582;2023-12-20T00:11:58;10.57;;;6.35;;
20828;SDS011;10575;50.124;8.582;2023-12-20T00:14:24;9.98;;;6.35;;
20828;SDS011;10575;50.124;8.582;2023-12-20T00:16:49;13.48;;;6.55;;
20828;SDS011;10575;50.124;8.582;2023-12-20T00:19:15;12.70;;;6.80;;
20828;SDS011;10575;50.124;8.582;2023-12-20T00:21:40;11.63;;;6.70;;
20828;SDS011;10575;50.124;8.582;2023-12-20T00:24:05;11.23;;;6.45;;
20828;SDS011;10575;50.124;8.582;2023-12-20T00:26:31;9.20;;;6.25;;
20828;SDS011;10575;50.124;8.582;2023-12-20T00:28:56;9.88;;;6.10;;
20828;SDS011;10575;50.124;8.582;2023-12-20T00:31:22;9.18;;;5.80;;
20828;SDS011;10575;50.124;8.582;2023-12-20T00:33:47;10.90;;;6.05;;
20828;SDS011;10575;50.124;8.582;2023-12-20T00:36:13;11.77;;;6.20;;
20828;SDS011;10575;50.124;8.582;2023-12-20T00:38:38;9.40;;;5.75;;
20828;SDS011;10575;50.124;8.582;2023-12-20T00:41:04;11.23;;;6.03;;
20828;SDS011;10575;50.124;8.582;2023-12-20T00:43:29;9.10;;;5.85;;
20828;SDS011;10575;50.124;8.582;2023-12-20T00:45:55;10.38;;;6.22;;
20828;SDS011;10575;50.124;8.582;2023-12-20T00:48:21;10.10;;;5.75;;
20828;SDS011;10575;50.124;8.582;2023-12-20T00:50:46;9.85;;;6.15;;
20828;SDS011;10575;50.124;8.582;2023-12-20T00:53:12;9.82;;;6.13;;
20828;SDS011;10575;50.124;8.582;2023-12-20T00:55:37;12.52;;;6.93;;
20828;SDS011;10575;50.124;8.582;2023-12-20T00:58:03;10.60;;;5.63;;
20828;SDS011;10575;50.124;8.582;2023-12-20T01:00:28;12.15;;;6.47;;
20828;SDS011;10575;50.124;8.582;2023-12-20T01:02:54;11.10;;;6.45;;
20828;SDS011;10575;50.124;8.582;2023-12-20T01:05:19;9.23;;;5.50;;
20828;SDS011;10575;50.124;8.582;2023-12-20T01:07:50;9.75;;;5.60;;
20828;SDS011;10575;50.124;8.582;2023-12-20T01:10:16;10.10;;;6.10;;
20828;SDS011;10575;50.124;8.582;2023-12-20T01:12:42;8.98;;;5.50;;
20828;SDS011;10575;50.124;8.582;2023-12-20T01:15:08;9.25;;;6.00;;
20828;SDS011;10575;50.124;8.582;2023-12-20T01:17:34;12.68;;;5.63;;
20828;SDS011;10575;50.124;8.582;2023-12-20T01:19:59;8.75;;;5.63;;
20828;SDS011;10575;50.124;8.582;2023-12-20T01:22:25;9.90;;;5.20;;
20828;SDS011;10575;50.124;8.582;2023-12-20T01:24:53;9.25;;;5.45;;
20828;SDS011;10575;50.124;8.582;2023-12-20T01:27:19;11.55;;;6.40;;
20828;SDS011;10575;50.124;8.582;2023-12-20T01:29:44;9.65;;;5.50;;
20828;SDS011;10575;50.124;8.582;2023-12-20T01:32:10;9.68;;;5.72;;
20828;SDS011;10575;50.124;8.582;2023-12-20T01:34:35;8.43;;;5.00;;
20828;SDS011;10575;50.124;8.582;2023-12-20T01:37:01;6.70;;;4.65;;
20828;SDS011;10575;50.124;8.582;2023-12-20T01:39:27;8.90;;;5.00;;
20828;SDS011;10575;50.124;8.582;2023-12-20T01:41:53;7.72;;;4.82;;
20828;SDS011;10575;50.124;8.582;2023-12-20T01:44:18;6.47;;;4.32;;
20828;SDS011;10575;50.124;8.582;2023-12-20T01:46:44;8.40;;;5.15;;
20828;SDS011;10575;50.124;8.582;2023-12-20T01:49:11;7.97;;;5.03;;
20828;SDS011;10575;50.124;8.582;2023-12-20T01:51:36;6.60;;;4.55;;
20828;SDS011;10575;50.124;8.582;2023-12-20T01:54:02;7.78;;;4.75;;
20828;SDS011;10575;50.124;8.582;2023-12-20T01:56:28;9.38;;;4.70;;
20828;SDS011;10575;50.124;8.582;2023-12-20T01:58:55;6.57;;;4.30;;
20828;SDS011;10575;50.124;8.582;2023-12-20T02:01:21;7.53;;;4.40;;
20828;SDS011;10575;50.124;8.582;2023-12-20T02:03:47;7.18;;;4.32;;
20828;SDS011;10575;50.124;8.582;2023-12-20T02:06:13;7.20;;;4.50;;
20828;SDS011;10575;50.124;8.582;2023-12-20T02:08:39;6.75;;;4.18;;
20828;SDS011;10575;50.124;8.582;2023-12-20T02:11:04;11.25;;;4.20;;
20828;SDS011;10575;50.124;8.582;2023-12-20T02:13:30;7.72;;;4.55;;
20828;SDS011;10575;50.124;8.582;2023-12-20T02:15:56;8.70;;;4.65;;
20828;SDS011;10575;50.124;8.582;2023-12-20T02:18:22;5.82;;;4.05;;
20828;SDS011;10575;50.124;8.582;2023-12-20T02:20:48;6.05;;;3.92;;
20828;SDS011;10575;50.124;8.582;2023-12-20T02:23:13;7.78;;;3.92;;
20828;SDS011;10575;50.124;8.582;2023-12-20T02:25:39;6.55;;;4.35;;
20828;SDS011;10575;50.124;8.582;2023-12-20T02:28:04;5.88;;;4.00;;
20828;SDS011;10575;50.124;8.582;2023-12-20T02:30:30;7.78;;;4.53;;
20828;SDS011;10575;50.124;8.582;2023-12-20T02:32:56;6.10;;;4.20;;
20828;SDS011;10575;50.124;8.582;2023-12-20T02:35:22;8.18;;;4.70;;
20828;SDS011;10575;50.124;8.582;2023-12-20T02:37:47;6.25;;;4.18;;
20828;SDS011;10575;50.124;8.582;2023-12-20T02:40:13;7.75;;;4.47;;
20828;SDS011;10575;50.124;8.582;2023-12-20T02:42:38;10.27;;;4.25;;
20828;SDS011;10575;50.124;8.582;2023-12-20T02:45:04;6.78;;;4.30;;
20828;SDS011;10575;50.124;8.582;2023-12-20T02:47:30;6.22;;;4.60;;
20828;SDS011;10575;50.124;8.582;2023-12-20T02:49:56;7.95;;;4.60;;
20828;SDS011;10575;50.124;8.582;2023-12-20T02:52:25;8.20;;;5.03;;
20828;SDS011;10575;50.124;8.582;2023-12-20T02:54:50;8.60;;;4.70;;
20828;SDS011;10575;50.124;8.582;2023-12-20T02:57:18;6.63;;;4.00;;
20828;SDS011;10575;50.124;8.582;2023-12-20T02:59:43;8.52;;;4.00;;
20828;SDS011;10575;50.124;8.582;2023-12-20T03:02:09;9.20;;;4.30;;
20828;SDS011;10575;50.124;8.582;2023-12-20T03:04:37;8.95;;;3.95;;
20828;SDS011;10575;50.124;8.582;2023-12-20T03:07:03;7.28;;;4.18;;
20828;SDS011;10575;50.124;8.582;2023-12-20T03:09:28;7.35;;;4.05;;
20828;SDS011;10575;50.124;8.582;2023-12-20T03:11:54;6.93;;;3.53;;
20828;SDS011;10575;50.124;8.582;2023-12-20T03:14:19;4.95;;;3.38;;
20828;SDS011;10575;50.124;8.582;2023-12-20T03:16:51;5.45;;;3.63;;
20828;SDS011;10575;50.124;8.582;2023-12-20T03:19:17;7.28;;;3.97;;
20828;SDS011;10575;50.124;8.582;2023-12-20T03:21:44;5.28;;;3.47;;
20828;SDS011;10575;50.124;8.582;2023-12-20T03:24:09;6.45;;;4.13;;
20828;SDS011;10575;50.124;8.582;2023-12-20T03:26:35;5.80;;;3.35;;
20828;SDS011;10575;50.124;8.582;2023-12-20T03:29:00;4.35;;;2.97;;
20828;SDS011;10575;50.124;8.582;2023-12-20T03:31:26;6.25;;;3.60;;
20828;SDS011;10575;50.124;8.582;2023-12-20T03:33:51;4.30;;;3.00;;
20828;SDS011;10575;50.124;8.582;2023-12-20T03:36:18;7.72;;;4.20;;
20828;SDS011;10575;50.124;8.582;2023-12-20T03:38:44;6.18;;;3.47;;
20828;SDS011;10575;50.124;8.582;2023-12-20T03:41:10;5.05;;;3.47;;
20828;SDS011;10575;50.124;8.582;2023-12-20T03:43:36;4.93;;;3.50;;
20828;SDS011;10575;50.124;8.582;2023-12-20T03:46:02;6.18;;;3.50;;
20828;SDS011;10575;50.124;8.582;2023-12-20T03:48:28;7.35;;;3.70;;
20828;SDS011;10575;50.124;8.582;2023-12-20T03:50:54;4.07;;;3.15;;
20828;SDS011;10575;50.124;8.582;2023-12-20T03:53:20;4.47;;;3.28;;
20828;SDS011;10575;50.124;8.582;2023-12-20T03:55:45;5.00;;;3.25;;
20828;SDS011;10575;50.124;8.582;2023-12-20T03:58:11;8.75;;;3.17;;
20828;SDS011;10575;50.124;8.582;2023-12-20T04:00:36;4.93;;;3.10;;
20828;SDS011;10575;50.124;8.582;2023-12-20T04:03:02;4.75;;;3.08;;
20828;SDS011;10575;50.124;8.582;2023-12-20T04:05:27;4.05;;;2.75;;
20828;SDS011;10575;50.124;8.582;2023-12-20T04:07:53;7.88;;;3.80;;
20828;SDS011;10575;50.124;8.582;2023-12-20T04:10:18;4.45;;;3.20;;
20828;SDS011;10575;50.124;8.582;2023-12-20T04:12:44;2.95;;;2.65;;
20828;SDS011;10575;50.124;8.582;2023-12-20T04:15:09;4.43;;;3.30;;
20828;SDS011;10575;50.124;8.582;2023-12-20T04:17:36;6.43;;;3.30;;
20828;SDS011;10575;50.124;8.582;2023-12-20T04:20:02;4.82;;;3.22;;
20828;SDS011;10575;50.124;8.582;2023-12-20T04:22:28;3.70;;;2.65;;
20828;SDS011;10575;50.124;8.582;2023-12-20T04:24:53;4.88;;;3.17;;
20828;SDS011;10575;50.124;8.582;2023-12-20T04:27:21;6.82;;;3.20;;
20828;SDS011;10575;50.124;8.582;2023-12-20T04:29:47;7.22;;;3.30;;
20828;SDS011;10575;50.124;8.582;2023-12-20T04:32:14;5.50;;;3.70;;
20828;SDS011;10575;50.124;8.582;2023-12-20T04:34:40;4.90;;;3.50;;
20828;SDS011;10575;50.124;8.582;2023-12-20T04:37:05;4.90;;;3.17;;
20828;SDS011;10575;50.124;8.582;2023-12-20T04:39:31;9.25;;;4.53;;
20828;SDS011;10575;50.124;8.582;2023-12-20T04:41:59;12.60;;;5.80;;
20828;SDS011;10575;50.124;8.582;2023-12-20T04:44:27;10.73;;;6.13;;
20828;SDS011;10575;50.124;8.582;2023-12-20T04:46:52;9.45;;;5.53;;
20828;SDS011;10575;50.124;8.582;2023-12-20T04:49:18;10.57;;;6.38;;
20828;SDS011;10575;50.124;8.582;2023-12-20T04:51:43;9.20;;;6.25;;
20828;SDS011;10575;50.124;8.582;2023-12-20T04:54:09;9.63;;;6.55;;
20828;SDS011;10575;50.124;8.582;2023-12-20T04:56:35;12.43;;;7.45;;
20828;SDS011;10575;50.124;8.582;2023-12-20T04:59:01;10.65;;;6.60;;
20828;SDS011;10575;50.124;8.582;2023-12-20T05:01:26;14.80;;;8.75;;
20828;SDS011;10575;50.124;8.582;2023-12-20T05:03:52;19.77;;;11.32;;
20828;SDS011;10575;50.124;8.582;2023-12-20T05:06:18;17.17;;;10.65;;
20828;SDS011;10575;50.124;8.582;2023-12-20T05:08:43;16.63;;;11.00;;
20828;SDS011;10575;50.124;8.582;2023-12-20T05:11:08;13.80;;;9.00;;
20828;SDS011;10575;50.124;8.582;2023-12-20T05:13:34;12.40;;;6.03;;
20828;SDS011;10575;50.124;8.582;2023-12-20T05:15:59;7.32;;;4.13;;
20828;SDS011;10575;50.124;8.582;2023-12-20T05:18:25;9.48;;;4.20;;
20828;SDS011;10575;50.124;8.582;2023-12-20T05:20:50;8.82;;;4.47;;
20828;SDS011;10575;50.124;8.582;2023-12-20T05:23:17;10.80;;;4.03;;
20828;SDS011;10575;50.124;8.582;2023-12-20T05:25:42;9.10;;;4.32;;
20828;SDS011;10575;50.124;8.582;2023-12-20T05:28:09;7.82;;;3.60;;
20828;SDS011;10575;50.124;8.582;2023-12-20T05:30:34;9.05;;;4.38;;
20828;SDS011;10575;50.124;8.582;2023-12-20T05:33:00;9.20;;;3.95;;
20828;SDS011;10575;50.124;8.582;2023-12-20T05:35:25;10.73;;;4.30;;
20828;SDS011;10575;50.124;8.582;2023-12-20T05:37:51;15.27;;;4.15;;
20828;SDS011;10575;50.124;8.582;2023-12-20T05:40:16;9.82;;;3.40;;
20828;SDS011;10575;50.124;8.582;2023-12-20T05:42:42;6.53;;;3.00;;
20828;SDS011;10575;50.124;8.582;2023-12-20T05:45:08;7.47;;;2.83;;
20828;SDS011;10575;50.124;8.582;2023-12-20T05:47:34;9.48;;;2.78;;
20828;SDS011;10575;50.124;8.582;2023-12-20T05:49:59;8.93;;;3.25;;
20828;SDS011;10575;50.124;8.582;2023-12-20T05:52:25;5.07;;;2.20;;
20828;SDS011;10575;50.124;8.582;2023-12-20T05:54:50;6.78;;;2.40;;
20828;SDS011;10575;50.124;8.582;2023-12-20T05:57:17;6.45;;;2.60;;
20828;SDS011;10575;50.124;8.582;2023-12-20T05:59:42;7.53;;;2.55;;
20828;SDS011;10575;50.124;8.582;2023-12-20T06:02:08;12.82;;;3.40;;
20828;SDS011;10575;50.124;8.582;2023-12-20T06:04:33;10.25;;;3.00;;
20828;SDS011;10575;50.124;8.582;2023-12-20T06:06:59;8.73;;;2.88;;
20828;SDS011;10575;50.124;8.582;2023-12-20T06:09:26;8.50;;;3.10;;
20828;SDS011;10575;50.124;8.582;2023-12-20T06:11:52;9.98;;;3.03;;
20828;SDS011;10575;50.124;8.582;2023-12-20T06:14:18;9.95;;;3.40;;
20828;SDS011;10575;50.124;8.582;2023-12-20T06:16:44;10.00;;;3.75;;
20828;SDS011;10575;50.124;8.582;2023-12-20T06:19:10;10.63;;;3.00;;
20828;SDS011;10575;50.124;8.582;2023-12-20T06:21:36;11.77;;;4.38;;
20828;SDS011;10575;50.124;8.582;2023-12-20T06:24:01;8.55;;;4.15;;
20828;SDS011;10575;50.124;8.582;2023-12-20T06:26:27;11.27;;;3.70;;
20828;SDS011;10575;50.124;8.582;2023-12-20T06:28:54;7.85;;;3.15;;
20828;SDS011;10575;50.124;8.582;2023-12-20T06:31:20;11.45;;;3.25;;
20828;SDS011;10575;50.124;8.582;2023-12-20T06:33:45;12.43;;;3.20;;
20828;SDS011;10575;50.124;8.582;2023-12-20T06:36:11;11.27;;;3.33;;
20828;SDS011;10575;50.124;8.582;2023-12-20T06:38:38;12.65;;;3.17;;
20828;SDS011;10575;50.124;8.582;2023-12-20T06:41:04;14.75;;;3.72;;
20828;SDS011;10575;50.124;8.582;2023-12-20T06:43:29;8.50;;;3.38;;
20828;SDS011;10575;50.124;8.582;2023-12-20T06:45:56;9.13;;;3.83;;
20828;SDS011;10575;50.124;8.582;2023-12-20T06:48:21;8.90;;;3.72;;
20828;SDS011;10575;50.124;8.582;2023-12-20T06:50:47;8.48;;;3.40;;
20828;SDS011;10575;50.124;8.582;2023-12-20T06:53:12;9.82;;;3.35;;
20828;SDS011;10575;50.124;8.582;2023-12-20T06:55:38;10.32;;;2.97;;
20828;SDS011;10575;50.124;8.582;2023-12-20T06:58:03;15.07;;;3.72;;
20828;SDS011;10575;50.124;8.582;2023-12-20T07:00:29;7.28;;;3.20;;
20828;SDS011;10575;50.124;8.582;2023-12-20T07:02:55;8.60;;;3.42;;
20828;SDS011;10575;50.124;8.582;2023-12-20T07:05:21;14.63;;;3.83;;
20828;SDS011;10575;50.124;8.582;2023-12-20T07:07:47;12.60;;;3.63;;
20828;SDS011;10575;50.124;8.582;2023-12-20T07:10:13;6.75;;;3.50;;
20828;SDS011;10575;50.124;8.582;2023-12-20T07:12:38;11.75;;;4.38;;
20828;SDS011;10575;50.124;8.582;2023-12-20T07:15:04;11.98;;;3.92;;
20828;SDS011;10575;50.124;8.582;2023-12-20T07:17:33;17.73;;;5.32;;
20828;SDS011;10575;50.124;8.582;2023-12-20T07:19:59;11.20;;;4.13;;
20828;SDS011;10575;50.124;8.582;2023-12-20T07:22:32;12.65;;;5.13;;
20828;SDS011;10575;50.124;8.582;2023-12-20T07:24:58;10.75;;;4.55;;
20828;SDS011;10575;50.124;8.582;2023-12-20T07:27:24;18.88;;;7.30;;
20828;SDS011;10575;50.124;8.582;2023-12-20T07:29:50;9.77;;;4.70;;
20828;SDS011;10575;50.124;8.582;2023-12-20T07:32:15;10.10;;;3.80;;
20828;SDS011;10575;50.124;8.582;2023-12-20T07:34:41;7.75;;;3.55;;
20828;SDS011;10575;50.124;8.582;2023-12-20T07:37:06;12.65;;;4.30;;
20828;SDS011;10575;50.124;8.582;2023-12-20T07:39:32;7.95;;;3.75;;
20828;SDS011;10575;50.124;8.582;2023-12-20T07:41:57;7.75;;;3.70;;
20828;SDS011;10575;50.124;8.582;2023-12-20T07:44:23;16.23;;;3.75;;
20828;SDS011;10575;50.124;8.582;2023-12-20T07:46:48;17.75;;;3.88;;
20828;SDS011;10575;50.124;8.582;2023-12-20T07:49:14;9.98;;;4.05;;
20828;SDS011;10575;50.124;8.582;2023-12-20T07:51:39;11.30;;;4.18;;
20828;SDS011;10575;50.124;8.582;2023-12-20T07:54:05;13.60;;;3.55;;
20828;SDS011;10575;50.124;8.582;2023-12-20T07:56:30;13.20;;;4.50;;
20828;SDS011;10575;50.124;8.582;2023-12-20T07:58:56;15.75;;;4.25;;
20828;SDS011;10575;50.124;8.582;2023-12-20T08:01:21;14.25;;;5.00;;
20828;SDS011;10575;50.124;8.582;2023-12-20T08:03:48;13.23;;;5.97;;
20828;SDS011;10575;50.124;8.582;2023-12-20T08:06:14;11.18;;;4.88;;
20828;SDS011;10575;50.124;8.582;2023-12-20T08:08:40;13.02;;;5.07;;
20828;SDS011;10575;50.124;8.582;2023-12-20T08:11:05;12.23;;;5.07;;
20828;SDS011;10575;50.124;8.582;2023-12-20T08:13:31;14.77;;;6.25;;
20828;SDS011;10575;50.124;8.582;2023-12-20T08:15:56;10.63;;;6.10;;
20828;SDS011;10575;50.124;8.582;2023-12-20T08:18:22;14.57;;;6.30;;
20828;SDS011;10575;50.124;8.582;2023-12-20T08:20:48;12.77;;;5.40;;
20828;SDS011;10575;50.124;8.582;2023-12-20T08:23:13;12.80;;;5.03;;
20828;SDS011;10575;50.124;8.582;2023-12-20T08:25:40;15.88;;;5.82;;
20828;SDS011;10575;50.124;8.582;2023-12-20T08:28:05;9.23;;;3.97;;
20828;SDS011;10575;50.124;8.582;2023-12-20T08:30:31;14.00;;;4.82;;
20828;SDS011;10575;50.124;8.582;2023-12-20T08:32:59;10.38;;;4.43;;
20828;SDS011;10575;50.124;8.582;2023-12-20T08:35:25;13.40;;;4.85;;
20828;SDS011;10575;50.124;8.582;2023-12-20T08:37:51;13.70;;;4.38;;
20828;SDS011;10575;50.124;8.582;2023-12-20T08:40:16;14.07;;;5.13;;
20828;SDS011;10575;50.124;8.582;2023-12-20T08:42:42;18.75;;;5.07;;
20828;SDS011;10575;50.124;8.582;2023-12-20T08:45:07;14.43;;;5.47;;
20828;SDS011;10575;50.124;8.582;2023-12-20T08:47:33;11.55;;;4.05;;
20828;SDS011;10575;50.124;8.582;2023-12-20T08:49:59;18.08;;;6.07;;
20828;SDS011;10575;50.124;8.582;2023-12-20T08:52:25;14.05;;;5.35;;
20828;SDS011;10575;50.124;8.582;2023-12-20T08:54:52;23.42;;;8.63;;
20828;SDS011;10575;50.124;8.582;2023-12-20T08:57:19;13.50;;;5.32;;
20828;SDS011;10575;50.124;8.582;2023-12-20T08:59:49;11.50;;;3.60;;
20828;SDS011;10575;50.124;8.582;2023-12-20T09:02:15;6.85;;;3.00;;
20828;SDS011;10575;50.124;8.582;2023-12-20T09:04:41;5.72;;;2.70;;
20828;SDS011;10575;50.124;8.582;2023-12-20T09:07:20;6.47;;;2.90;;
20828;SDS011;10575;50.124;8.582;2023-12-20T09:09:47;7.78;;;3.08;;
20828;SDS011;10575;50.124;8.582;2023-12-20T09:12:12;10.75;;;2.92;;
20828;SDS011;10575;50.124;8.582;2023-12-20T09:14:38;7.50;;;3.03;;
20828;SDS011;10575;50.124;8.582;2023-12-20T09:17:03;8.32;;;3.70;;
20828;SDS011;10575;50.124;8.582;2023-12-20T09:19:29;9.60;;;4.03;;
20828;SDS011;10575;50.124;8.582;2023-12-20T09:21:54;11.27;;;3.28;;
20828;SDS011;10575;50.124;8.582;2023-12-20T09:24:20;10.02;;;4.40;;
20828;SDS011;10575;50.124;8.582;2023-12-20T09:26:45;11.40;;;4.38;;
20828;SDS011;10575;50.124;8.582;2023-12-20T09:29:11;9.70;;;3.40;;
20828;SDS011;10575;50.124;8.582;2023-12-20T09:31:40;16.45;;;5.50;;
20828;SDS011;10575;50.124;8.582;2023-12-20T09:34:06;15.43;;;4.25;;
20828;SDS011;10575;50.124;8.582;2023-12-20T09:36:32;14.85;;;4.30;;
20828;SDS011;10575;50.124;8.582;2023-12-20T09:39:01;10.80;;;3.55;;
20828;SDS011;10575;50.124;8.582;2023-12-20T09:41:27;9.73;;;4.60;;
20828;SDS011;10575;50.124;8.582;2023-12-20T09:43:55;20.67;;;6.10;;
20828;SDS011;10575;50.124;8.582;2023-12-20T09:46:24;13.07;;;5.03;;
20828;SDS011;10575;50.124;8.582;2023-12-20T09:48:54;16.98;;;4.05;;
20828;SDS011;10575;50.124;8.582;2023-12-20T09:51:20;12.75;;;3.97;;
20828;SDS011;10575;50.124;8.582;2023-12-20T09:53:46;10.52;;;4.28;;
20828;SDS011;10575;50.124;8.582;2023-12-20T09:56:13;11.50;;;4.30;;
20828;SDS011;10575;50.124;8.582;2023-12-20T09:58:39;8.73;;;3.95;;
20828;SDS011;10575;50.124;8.582;2023-12-20T10:01:05;12.00;;;3.88;;
20828;SDS011;10575;50.124;8.582;2023-12-20T10:03:32;15.02;;;4.88;;
20828;SDS011;10575;50.124;8.582;2023-12-20T10:05:59;12.60;;;4.35;;
20828;SDS011;10575;50.124;8.582;2023-12-20T10:08:25;11.07;;;4.97;;
20828;SDS011;10575;50.124;8.582;2023-12-20T10:10:51;13.55;;;4.00;;
20828;SDS011;10575;50.124;8.582;2023-12-20T10:13:17;13.30;;;4.18;;
20828;SDS011;10575;50.124;8.582;2023-12-20T10:15:42;10.32;;;3.63;;
20828;SDS011;10575;50.124;8.582;2023-12-20T10:18:08;11.88;;;4.75;;
20828;SDS011;10575;50.124;8.582;2023-12-20T10:20:34;10.57;;;4.32;;
20828;SDS011;10575;50.124;8.582;2023-12-20T10:22:59;13.45;;;4.13;;
20828;SDS011;10575;50.124;8.582;2023-12-20T10:25:25;11.48;;;4.00;;
20828;SDS011;10575;50.124;8.582;2023-12-20T10:28:08;10.38;;;4.25;;
20828;SDS011;10575;50.124;8.582;2023-12-20T10:30:35;9.73;;;3.92;;
20828;SDS011;10575;50.124;8.582;2023-12-20T10:33:00;12.82;;;4.10;;
20828;SDS011;10575;50.124;8.582;2023-12-20T10:35:26;14.30;;;4.43;;
20828;SDS011;10575;50.124;8.582;2023-12-20T10:37:52;15.25;;;4.22;;
20828;SDS011;10575;50.124;8.582;2023-12-20T10:40:21;14.90;;;4.55;;
20828;SDS011;10575;50.124;8.582;2023-12-20T10:42:47;14.52;;;4.60;;
20828;SDS011;10575;50.124;8.582;2023-12-20T10:45:14;10.98;;;4.13;;
20828;SDS011;10575;50.124;8.582;2023-12-20T10:47:41;10.20;;;4.13;;
20828;SDS011;10575;50.124;8.582;2023-12-20T10:50:11;11.73;;;4.10;;
20828;SDS011;10575;50.124;8.582;2023-12-20T10:52:37;13.63;;;4.65;;
20828;SDS011;10575;50.124;8.582;2023-12-20T10:55:03;8.43;;;3.67;;
20828;SDS011;10575;50.124;8.582;2023-12-20T10:57:29;18.52;;;3.90;;
20828;SDS011;10575;50.124;8.582;2023-12-20T10:59:55;12.27;;;3.42;;
20828;SDS011;10575;50.124;8.582;2023-12-20T11:02:25;14.40;;;3.10;;
20828;SDS011;10575;50.124;8.582;2023-12-20T11:05:28;13.95;;;3.63;;
20828;SDS011;10575;50.124;8.582;2023-12-20T11:08:07;10.48;;;3.33;;
20828;SDS011;10575;50.124;8.582;2023-12-20T11:10:51;11.65;;;4.35;;
20828;SDS011;10575;50.124;8.582;2023-12-20T11:13:34;10.13;;;3.40;;
20828;SDS011;10575;50.124;8.582;2023-12-20T11:16:04;9.68;;;3.05;;
20828;SDS011;10575;50.124;8.582;2023-12-20T11:18:31;8.10;;;3.17;;
20828;SDS011;10575;50.124;8.582;2023-12-20T11:21:00;7.60;;;2.90;;
20828;SDS011;10575;50.124;8.582;2023-12-20T11:23:30;10.13;;;3.00;;
20828;SDS011;10575;50.124;8.582;2023-12-20T11:25:58;15.90;;;3.65;;
20828;SDS011;10575;50.124;8.582;2023-12-20T11:28:24;12.40;;;3.55;;
20828;SDS011;10575;50.124;8.582;2023-12-20T11:33:16;9.32;;;3.72;;
20828;SDS011;10575;50.124;8.582;2023-12-20T11:35:50;11.30;;;3.20;;
20828;SDS011;10575;50.124;8.582;2023-12-20T11:38:16;8.27;;;2.78;;
20828;SDS011;10575;50.124;8.582;2023-12-20T11:40:45;9.45;;;3.00;;
20828;SDS011;10575;50.124;8.582;2023-12-20T11:43:17;11.88;;;3.10;;
20828;SDS011;10575;50.124;8.582;2023-12-20T11:46:03;7.28;;;2.80;;
20828;SDS011;10575;50.124;8.582;2023-12-20T11:48:39;9.38;;;2.60;;
20828;SDS011;10575;50.124;8.582;2023-12-20T11:51:09;6.78;;;2.47;;
20828;SDS011;10575;50.124;8.582;2023-12-20T11:53:38;6.15;;;2.53;;
20828;SDS011;10575;50.124;8.582;2023-12-20T11:56:05;4.65;;;2.00;;
20828;SDS011;10575;50.124;8.582;2023-12-20T11:58:31;5.90;;;2.13;;
20828;SDS011;10575;50.124;8.582;2023-12-20T12:00:57;6.03;;;2.20;;
20828;SDS011;10575;50.124;8.582;2023-12-20T12:03:23;7.95;;;2.80;;
20828;SDS011;10575;50.124;8.582;2023-12-20T12:05:48;7.75;;;2.40;;
20828;SDS011;10575;50.124;8.582;2023-12-20T12:08:14;7.72;;;2.45;;
20828;SDS011;10575;50.124;8.582;2023-12-20T12:10:40;10.63;;;2.63;;
20828;SDS011;10575;50.124;8.582;2023-12-20T12:13:06;8.80;;;2.55;;
20828;SDS011;10575;50.124;8.582;2023-12-20T12:15:34;13.18;;;2.80;;
20828;SDS011;10575;50.124;8.582;2023-12-20T12:18:01;8.32;;;2.50;;
20828;SDS011;10575;50.124;8.582;2023-12-20T12:20:26;5.50;;;2.40;;
20828;SDS011;10575;50.124;8.582;2023-12-20T12:23:02;14.20;;;2.40;;
20828;SDS011;10575;50.124;8.582;2023-12-20T12:25:29;6.93;;;2.95;;
20828;SDS011;10575;50.124;8.582;2023-12-20T12:27:57;12.75;;;3.08;;
20828;SDS011;10575;50.124;8.582;2023-12-20T12:30:25;11.75;;;2.70;;
20828;SDS011;10575;50.124;8.582;2023-12-20T12:32:55;9.07;;;2.55;;
20828;SDS011;10575;50.124;8.582;2023-12-20T12:35:21;8.30;;;2.47;;
20828;SDS011;10575;50.124;8.582;2023-12-20T12:37:47;9.73;;;2.72;;
20828;SDS011;10575;50.124;8.582;2023-12-20T12:40:16;6.97;;;2.30;;
20828;SDS011;10575;50.124;8.582;2023-12-20T12:42:43;7.72;;;2.10;;
20828;SDS011;10575;50.124;8.582;2023-12-20T12:45:09;6.97;;;2.53;;
20828;SDS011;10575;50.124;8.582;2023-12-20T12:47:36;4.53;;;2.25;;
20828;SDS011;10575;50.124;8.582;2023-12-20T12:50:02;11.02;;;2.70;;
20828;SDS011;10575;50.124;8.582;2023-12-20T12:52:28;6.47;;;2.55;;
20828;SDS011;10575;50.124;8.582;2023-12-20T12:54:53;6.35;;;3.38;;
20828;SDS011;10575;50.124;8.582;2023-12-20T12:57:19;6.95;;;2.50;;
20828;SDS011;10575;50.124;8.582;2023-12-20T12:59:45;8.55;;;2.67;;
20828;SDS011;10575;50.124;8.582;2023-12-20T13:02:12;8.50;;;2.97;;
20828;SDS011;10575;50.124;8.582;2023-12-20T13:04:38;10.23;;;2.72;;
20828;SDS011;10575;50.124;8.582;2023-12-20T13:07:04;7.00;;;2.63;;
20828;SDS011;10575;50.124;8.582;2023-12-20T13:09:30;11.68;;;3.10;;
20828;SDS011;10575;50.124;8.582;2023-12-20T13:11:56;9.05;;;2.60;;
20828;SDS011;10575;50.124;8.582;2023-12-20T13:14:21;12.10;;;2.90;;
20828;SDS011;10575;50.124;8.582;2023-12-20T13:16:47;4.45;;;2.20;;
20828;SDS011;10575;50.124;8.582;2023-12-20T13:19:13;8.63;;;3.17;;
20828;SDS011;10575;50.124;8.582;2023-12-20T13:21:38;7.72;;;2.70;;
20828;SDS011;10575;50.124;8.582;2023-12-20T13:24:04;8.95;;;3.05;;
20828;SDS011;10575;50.124;8.582;2023-12-20T13:26:30;12.52;;;3.20;;
20828;SDS011;10575;50.124;8.582;2023-12-20T13:28:56;9.48;;;2.65;;
20828;SDS011;10575;50.124;8.582;2023-12-20T13:31:21;5.47;;;2.40;;
20828;SDS011;10575;50.124;8.582;2023-12-20T13:33:47;9.25;;;2.90;;
20828;SDS011;10575;50.124;8.582;2023-12-20T13:36:12;10.50;;;3.38;;
20828;SDS011;10575;50.124;8.582;2023-12-20T13:38:38;6.95;;;2.67;;
20828;SDS011;10575;50.124;8.582;2023-12-20T13:41:04;9.25;;;2.50;;
20828;SDS011;10575;50.124;8.582;2023-12-20T13:43:30;9.27;;;3.15;;
20828;SDS011;10575;50.124;8.582;2023-12-20T13:45:57;10.05;;;3.22;;
20828;SDS011;10575;50.124;8.582;2023-12-20T13:48:23;9.35;;;2.88;;
20828;SDS011;10575;50.124;8.582;2023-12-20T13:50:50;9.95;;;3.08;;
20828;SDS011;10575;50.124;8.582;2023-12-20T13:53:16;11.80;;;3.22;;
20828;SDS011;10575;50.124;8.582;2023-12-20T13:55:41;9.32;;;3.10;;
20828;SDS011;10575;50.124;8.582;2023-12-20T13:58:07;13.75;;;3.28;;
20828;SDS011;10575;50.124;8.582;2023-12-20T14:00:32;10.35;;;2.88;;
20828;SDS011;10575;50.124;8.582;2023-12-20T14:02:58;9.00;;;2.58;;
20828;SDS011;10575;50.124;8.582;2023-12-20T14:05:23;10.07;;;3.17;;
20828;SDS011;10575;50.124;8.582;2023-12-20T14:07:49;6.53;;;2.50;;
20828;SDS011;10575;50.124;8.582;2023-12-20T14:10:15;12.23;;;4.13;;
20828;SDS011;10575;50.124;8.582;2023-12-20T14:12:40;13.57;;;3.47;;
20828;SDS011;10575;50.124;8.582;2023-12-20T14:15:06;8.20;;;3.55;;
20828;SDS011;10575;50.124;8.582;2023-12-20T14:17:39;13.20;;;3.15;;
20828;SDS011;10575;50.124;8.582;2023-12-20T14:20:07;12.02;;;3.05;;
20828;SDS011;10575;50.124;8.582;2023-12-20T14:22:33;10.73;;;2.83;;
20828;SDS011;10575;50.124;8.582;2023-12-20T14:25:00;11.50;;;3.17;;
20828;SDS011;10575;50.124;8.582;2023-12-20T14:27:27;6.68;;;2.63;;
20828;SDS011;10575;50.124;8.582;2023-12-20T14:29:53;8.43;;;2.63;;
20828;SDS011;10575;50.124;8.582;2023-12-20T14:32:19;6.35;;;2.55;;
20828;SDS011;10575;50.124;8.582;2023-12-20T14:34:45;6.93;;;2.33;;
20828;SDS011;10575;50.124;8.582;2023-12-20T14:37:11;10.13;;;3.92;;
20828;SDS011;10575;50.124;8.582;2023-12-20T14:39:37;7.03;;;3.20;;